Rocky Mountain Metropolitan Airport Denver US
ICAO: KBJC
IATA: BJC
Category: Medium
Scheduled Services: No

Elevation: 5673 ft
TransAlt. 18000 ft.

Airport Communications:
DENVER APP/DEP:126.1
ATIS:126.25
CTAF:118.6
GND:121.7
TWR:118.6

KBJC Zoom In..

Runways:

(A) RW 02 length 3600 ft width 75 ft
---- / hdg 23

(B) RW 11L length 9000 ft width 100 ft
---- / hdg 113

(C) RW 11R length 7002 ft width 75 ft
---- / hdg 113

(D) RW 20 length 3600 ft width 75 ft
---- / hdg 203

(E) RW 29L length 7002 ft width 75 ft
---- / hdg 293

(F) RW 29R length 9000 ft width 100 ft
ILS 111.70 / hdg 293

Location; KBJC
Day. 03 / Time. 01.45 Zulu
* Altimeter: 30.17
* Temperature: 26° c. 78.8°f.
* Wind from: 360° Speed 08 kn.
Dewpoint: 06° c.
Visibility: 10 Statute Miles.
Clouds: Scattered 8000 ft.
Clouds: Broken 15000 ft.

KBJC 030145Z 36008KT 10SM SCT080 BKN150 26/06 A3017


Wind From 360°
Speed 08 kn.

 
 
jpsmedia worldairports.se 2020   terms of use